createdAt,value
2023-04-08T00:01:48.262Z,4.97
2023-04-08T00:04:15.669Z,4.63
2023-04-08T00:06:43.101Z,4.17
2023-04-08T00:09:10.558Z,6.10
2023-04-08T00:11:38.075Z,4.70
2023-04-08T00:14:05.560Z,4.73
2023-04-08T00:16:33.158Z,5.03
2023-04-08T00:19:00.524Z,4.60
2023-04-08T00:21:35.331Z,4.80
2023-04-08T00:24:02.895Z,4.57
2023-04-08T00:26:30.909Z,4.67
2023-04-08T00:28:58.407Z,4.93
2023-04-08T00:31:26.282Z,4.70
2023-04-08T00:33:53.891Z,4.73
2023-04-08T00:36:21.420Z,4.73
2023-04-08T00:38:49.138Z,4.50
2023-04-08T00:41:17.093Z,4.97
2023-04-08T00:43:44.710Z,4.97
2023-04-08T00:46:12.240Z,4.57
2023-04-08T00:48:39.932Z,5.17
2023-04-08T00:51:07.628Z,4.87
2023-04-08T00:53:35.451Z,4.80
2023-04-08T00:56:02.966Z,4.53
2023-04-08T00:58:30.620Z,4.83
2023-04-08T01:01:15.978Z,4.30
2023-04-08T01:03:45.602Z,4.70
2023-04-08T01:06:43.561Z,4.83
2023-04-08T01:09:12.035Z,5.17
2023-04-08T01:11:42.517Z,4.87
2023-04-08T01:14:10.962Z,5.40
2023-04-08T01:16:42.621Z,5.17
2023-04-08T01:19:11.387Z,5.63
2023-04-08T01:21:39.299Z,4.50
2023-04-08T01:24:10.150Z,4.53
2023-04-08T01:26:37.778Z,5.37
2023-04-08T01:29:06.405Z,4.47
2023-04-08T01:31:33.952Z,4.43
2023-04-08T01:34:02.660Z,4.73
2023-04-08T01:36:32.737Z,3.50
2023-04-08T01:39:05.654Z,4.57
2023-04-08T01:41:35.128Z,4.83
2023-04-08T01:44:03.572Z,4.40
2023-04-08T01:46:32.478Z,4.10
2023-04-08T01:49:01.083Z,4.13
2023-04-08T01:51:29.129Z,4.13
2023-04-08T01:53:57.406Z,4.47
2023-04-08T01:56:28.421Z,4.57
2023-04-08T01:58:58.901Z,5.27
2023-04-08T02:01:27.164Z,4.97
2023-04-08T02:03:59.543Z,4.00
2023-04-08T02:06:27.819Z,4.70
2023-04-08T02:08:55.460Z,4.27
2023-04-08T02:11:22.919Z,4.40
2023-04-08T02:13:51.810Z,4.07
2023-04-08T02:16:23.150Z,4.83
2023-04-08T02:18:57.196Z,4.07
2023-04-08T02:21:28.610Z,4.80
2023-04-08T02:23:58.054Z,4.37
2023-04-08T02:26:25.762Z,4.63
2023-04-08T02:28:55.776Z,4.33
2023-04-08T02:31:23.994Z,4.27
2023-04-08T02:33:52.426Z,4.33
2023-04-08T02:36:21.151Z,4.17
2023-04-08T02:38:50.175Z,4.03
2023-04-08T02:41:18.076Z,4.23
2023-04-08T02:43:46.028Z,4.07
2023-04-08T02:46:13.624Z,3.70
2023-04-08T02:48:41.250Z,4.43
2023-04-08T02:51:08.636Z,4.47
2023-04-08T02:53:36.061Z,4.30
2023-04-08T02:56:03.606Z,4.57
2023-04-08T02:58:31.181Z,3.60
2023-04-08T03:00:58.623Z,4.00
2023-04-08T03:03:29.704Z,4.07
2023-04-08T03:05:58.059Z,4.47
2023-04-08T03:08:25.882Z,4.10
2023-04-08T03:10:53.325Z,4.37
2023-04-08T03:13:20.917Z,3.80
2023-04-08T03:15:48.403Z,3.83
2023-04-08T03:18:15.997Z,3.97
2023-04-08T03:20:43.341Z,3.93
2023-04-08T03:23:10.835Z,3.83
2023-04-08T03:25:38.518Z,4.13
2023-04-08T03:28:06.238Z,3.87
2023-04-08T03:30:34.063Z,3.73
2023-04-08T03:33:04.370Z,4.10
2023-04-08T03:35:33.434Z,3.10
2023-04-08T03:38:01.083Z,3.90
2023-04-08T03:40:28.479Z,4.43
2023-04-08T03:42:55.961Z,3.57
2023-04-08T03:45:23.448Z,3.80
2023-04-08T03:47:50.840Z,4.00
2023-04-08T03:50:18.361Z,3.33
2023-04-08T03:52:46.026Z,3.17
2023-04-08T03:55:13.458Z,3.70
2023-04-08T03:57:41.250Z,4.30
2023-04-08T04:00:09.165Z,3.73
2023-04-08T04:02:46.130Z,3.07
2023-04-08T04:05:13.870Z,3.97
2023-04-08T04:07:41.284Z,3.70
2023-04-08T04:10:09.016Z,3.47
2023-04-08T04:12:36.470Z,3.30
2023-04-08T04:15:04.191Z,3.33
2023-04-08T04:17:31.989Z,3.20
2023-04-08T04:19:59.516Z,3.77
2023-04-08T04:22:27.356Z,3.47
2023-04-08T04:24:54.872Z,3.83
2023-04-08T04:27:22.387Z,3.27
2023-04-08T04:29:49.732Z,4.20
2023-04-08T04:32:17.246Z,3.87
2023-04-08T04:34:45.901Z,4.17
2023-04-08T04:37:13.739Z,3.73
2023-04-08T04:39:41.150Z,3.83
2023-04-08T04:42:08.518Z,3.57
2023-04-08T04:44:35.926Z,4.23
2023-04-08T04:47:03.309Z,3.97
2023-04-08T04:49:30.676Z,4.13
2023-04-08T04:51:58.038Z,3.67
2023-04-08T04:54:25.889Z,3.77
2023-04-08T04:56:53.211Z,3.50
2023-04-08T04:59:20.650Z,4.50
2023-04-08T05:01:48.370Z,4.43
2023-04-08T05:04:16.136Z,4.13
2023-04-08T05:06:43.625Z,4.60
2023-04-08T05:09:11.084Z,4.00
2023-04-08T05:11:38.449Z,4.03
2023-04-08T05:14:06.914Z,3.43
2023-04-08T05:16:34.833Z,3.77
2023-04-08T05:19:02.277Z,3.43
2023-04-08T05:21:29.648Z,4.70
2023-04-08T05:23:56.982Z,3.80
2023-04-08T05:26:24.550Z,3.50
2023-04-08T05:28:52.375Z,4.10
2023-04-08T05:31:20.607Z,3.97
2023-04-08T05:33:48.210Z,3.83
2023-04-08T05:36:15.707Z,3.60
2023-04-08T05:38:44.314Z,3.83
2023-04-08T05:41:11.750Z,4.07
2023-04-08T05:43:39.106Z,3.40
2023-04-08T05:46:07.758Z,3.70
2023-04-08T05:48:35.497Z,4.03
2023-04-08T05:51:03.602Z,3.60
2023-04-08T05:53:31.434Z,3.27
2023-04-08T05:55:58.945Z,3.50
2023-04-08T05:58:26.448Z,3.63
2023-04-08T06:00:55.595Z,3.77
2023-04-08T06:03:23.151Z,4.13
2023-04-08T06:05:50.720Z,4.60
2023-04-08T06:08:18.084Z,3.77
2023-04-08T06:10:52.040Z,3.87
2023-04-08T06:13:21.079Z,4.03
2023-04-08T06:15:51.676Z,3.93
2023-04-08T06:18:19.141Z,4.57
2023-04-08T06:20:46.868Z,3.67
2023-04-08T06:23:14.896Z,4.27
2023-04-08T06:25:42.533Z,3.37
2023-04-08T06:28:09.943Z,4.67
2023-04-08T06:30:37.289Z,4.13
2023-04-08T06:33:04.952Z,4.87
2023-04-08T06:35:32.770Z,3.80
2023-04-08T06:38:00.977Z,4.20
2023-04-08T06:40:28.647Z,3.63
2023-04-08T06:42:56.234Z,4.33
2023-04-08T06:45:36.631Z,4.30
2023-04-08T06:48:04.286Z,3.93
2023-04-08T06:50:31.825Z,3.80
2023-04-08T06:53:00.395Z,3.90
2023-04-08T06:55:27.889Z,3.97
2023-04-08T06:57:55.262Z,4.70
2023-04-08T07:00:22.613Z,3.67
2023-04-08T07:02:50.033Z,3.80
2023-04-08T07:05:17.659Z,4.47
2023-04-08T07:07:45.374Z,4.03
2023-04-08T07:10:13.563Z,4.13
2023-04-08T07:12:41.329Z,4.37
2023-04-08T07:15:09.096Z,5.60
2023-04-08T07:17:37.164Z,4.80
2023-04-08T07:20:04.854Z,4.13
2023-04-08T07:22:32.312Z,4.10
2023-04-08T07:24:59.829Z,5.43
2023-04-08T07:27:27.460Z,4.43
2023-04-08T07:29:55.231Z,4.30
2023-04-08T07:32:23.600Z,4.30
2023-04-08T07:34:53.951Z,3.97
2023-04-08T07:37:23.554Z,5.37
2023-04-08T07:39:51.219Z,4.53
2023-04-08T07:42:18.653Z,4.13
2023-04-08T07:44:46.671Z,4.93
2023-04-08T07:47:14.210Z,4.17
2023-04-08T07:49:41.676Z,4.47
2023-04-08T07:52:09.263Z,4.70
2023-04-08T07:54:36.787Z,4.17
2023-04-08T07:57:04.271Z,4.57
2023-04-08T07:59:32.784Z,4.23
2023-04-08T08:02:00.472Z,4.43
2023-04-08T08:04:28.317Z,4.27
2023-04-08T08:06:55.945Z,4.70
2023-04-08T08:09:23.451Z,5.17
2023-04-08T08:11:50.921Z,4.93
2023-04-08T08:14:18.473Z,3.67
2023-04-08T08:16:45.926Z,4.13
2023-04-08T08:19:14.106Z,4.27
2023-04-08T08:21:41.962Z,4.53
2023-04-08T08:24:09.399Z,4.13
2023-04-08T08:26:37.184Z,5.50
2023-04-08T08:29:05.284Z,4.77
2023-04-08T08:31:32.800Z,5.37
2023-04-08T08:34:00.314Z,4.77
2023-04-08T08:36:27.884Z,5.23
2023-04-08T08:38:55.603Z,5.37
2023-04-08T08:41:25.104Z,5.07
2023-04-08T08:43:52.869Z,5.67
2023-04-08T08:46:22.115Z,5.47
2023-04-08T08:48:49.986Z,5.03
2023-04-08T08:51:25.182Z,5.60
2023-04-08T08:53:53.027Z,4.67
2023-04-08T08:56:22.458Z,4.90
2023-04-08T08:58:51.919Z,4.83
2023-04-08T09:01:38.196Z,4.97
2023-04-08T09:04:10.427Z,4.90
2023-04-08T09:06:40.069Z,4.73
2023-04-08T09:09:12.807Z,4.87
2023-04-08T09:11:41.391Z,4.70
2023-04-08T09:14:38.226Z,4.70
2023-04-08T09:17:07.147Z,5.00
2023-04-08T09:19:35.085Z,5.00
2023-04-08T09:22:07.568Z,4.80
2023-04-08T09:24:35.701Z,4.70
2023-04-08T09:27:03.266Z,5.20
2023-04-08T09:29:34.188Z,5.03
2023-04-08T09:32:02.963Z,4.93
2023-04-08T09:34:32.515Z,4.67
2023-04-08T09:37:00.049Z,4.50
2023-04-08T09:39:27.465Z,4.83
2023-04-08T09:41:56.518Z,4.57
2023-04-08T09:44:26.656Z,4.80
2023-04-08T09:46:54.223Z,5.10
2023-04-08T09:49:21.728Z,5.20
2023-04-08T09:52:12.845Z,4.30
2023-04-08T09:54:43.523Z,4.53
2023-04-08T09:57:14.438Z,4.67
2023-04-08T09:59:46.756Z,4.83
2023-04-08T10:02:17.420Z,5.10
2023-04-08T10:04:46.672Z,5.17
2023-04-08T10:07:14.980Z,5.57
2023-04-08T10:09:44.219Z,5.10
2023-04-08T10:12:11.876Z,5.50
2023-04-08T10:14:39.918Z,5.00
2023-04-08T10:17:29.762Z,4.57
2023-04-08T10:19:58.752Z,5.07
2023-04-08T10:22:35.020Z,5.97
2023-04-08T10:25:17.737Z,5.93
2023-04-08T10:27:46.230Z,6.13
2023-04-08T10:30:29.287Z,6.03
2023-04-08T10:32:56.945Z,6.00
2023-04-08T10:35:31.443Z,5.93
2023-04-08T10:37:59.744Z,5.47
2023-04-08T10:40:28.296Z,6.17
2023-04-08T10:42:59.747Z,5.50
2023-04-08T10:45:27.339Z,5.37
2023-04-08T10:47:54.989Z,5.37
2023-04-08T10:50:25.625Z,6.50
2023-04-08T10:52:54.255Z,5.87
2023-04-08T10:55:25.529Z,5.07
2023-04-08T10:57:53.999Z,6.57
2023-04-08T11:00:48.627Z,5.47
2023-04-08T11:03:17.261Z,5.40
2023-04-08T11:05:45.391Z,5.43
2023-04-08T11:08:12.841Z,4.50
2023-04-08T11:10:40.408Z,5.17
2023-04-08T11:13:09.986Z,5.67
2023-04-08T11:15:37.983Z,5.27
2023-04-08T11:18:06.076Z,4.50
2023-04-08T11:20:36.309Z,4.77
2023-04-08T11:23:03.949Z,4.67
2023-04-08T11:25:32.003Z,4.90
2023-04-08T11:28:00.409Z,4.97
2023-04-08T11:30:28.240Z,4.40
2023-04-08T11:32:57.099Z,4.87
2023-04-08T11:35:24.726Z,4.30
2023-04-08T11:37:53.905Z,4.10
2023-04-08T11:40:26.286Z,4.60
2023-04-08T11:42:53.840Z,4.73
2023-04-08T11:45:22.036Z,4.30
2023-04-08T11:47:50.002Z,4.80
2023-04-08T11:50:24.913Z,5.10
2023-04-08T11:52:53.083Z,4.10
2023-04-08T11:55:31.735Z,5.00
2023-04-08T11:58:03.407Z,5.03
2023-04-08T12:00:31.333Z,5.50
2023-04-08T12:02:58.942Z,4.83
2023-04-08T12:05:26.668Z,5.10
2023-04-08T12:19:51.497Z,4.33
2023-04-08T12:22:19.067Z,4.27
2023-04-08T12:24:46.541Z,4.57
2023-04-08T12:27:13.968Z,4.53
2023-04-08T12:29:41.777Z,4.83
2023-04-08T12:32:09.251Z,4.97
2023-04-08T12:34:36.876Z,4.73
2023-04-08T12:37:04.254Z,5.30
2023-04-08T12:39:31.636Z,5.63
2023-04-08T12:41:59.790Z,4.83
2023-04-08T12:44:27.314Z,4.87
2023-04-08T12:46:54.902Z,4.67
2023-04-08T12:49:23.427Z,4.67
2023-04-08T12:51:51.294Z,4.47
2023-04-08T12:54:18.967Z,4.60
2023-04-08T12:56:49.007Z,4.73
2023-04-08T12:59:16.634Z,4.43
2023-04-08T13:01:44.137Z,4.50
2023-04-08T13:04:11.645Z,4.50
2023-04-08T13:06:39.047Z,3.80
2023-04-08T13:09:06.658Z,3.97
2023-04-08T13:11:34.233Z,4.43
2023-04-08T13:14:02.240Z,4.37
2023-04-08T13:16:29.624Z,5.00
2023-04-08T13:18:56.988Z,3.97
2023-04-08T13:21:24.405Z,4.83
2023-04-08T13:23:51.864Z,4.57
2023-04-08T13:26:19.177Z,4.07
2023-04-08T13:28:56.757Z,4.90
2023-04-08T13:31:24.661Z,4.50
2023-04-08T13:33:53.877Z,4.07
2023-04-08T13:36:22.901Z,4.30
2023-04-08T13:38:50.692Z,5.37
2023-04-08T13:41:18.326Z,4.10
2023-04-08T13:43:45.801Z,4.33
2023-04-08T13:46:13.296Z,4.00
2023-04-08T13:48:40.819Z,5.07
2023-04-08T13:51:08.541Z,3.87
2023-04-08T13:53:36.453Z,5.40
2023-04-08T13:56:04.000Z,5.27
2023-04-08T13:58:34.673Z,4.67
2023-04-08T14:01:02.742Z,4.57
2023-04-08T14:03:31.717Z,4.70
2023-04-08T14:06:01.186Z,4.37
2023-04-08T14:08:29.309Z,5.37
2023-04-08T14:10:57.899Z,5.67
2023-04-08T14:13:25.658Z,4.73
2023-04-08T14:15:55.120Z,4.67
2023-04-08T14:18:23.358Z,4.00
2023-04-08T14:20:50.698Z,4.40
2023-04-08T14:23:21.257Z,4.57
2023-04-08T14:25:48.710Z,4.50
2023-04-08T14:28:16.197Z,4.27
2023-04-08T14:30:44.105Z,4.50
2023-04-08T14:33:12.041Z,4.53
2023-04-08T14:35:39.391Z,4.37
2023-04-08T14:38:08.286Z,4.17
2023-04-08T14:40:37.522Z,4.73
2023-04-08T14:43:05.347Z,5.53
2023-04-08T14:45:33.435Z,5.50
2023-04-08T14:48:01.335Z,3.87
2023-04-08T14:50:28.816Z,4.63
2023-04-08T14:52:56.307Z,5.43
2023-04-08T14:55:23.880Z,4.83
2023-04-08T14:57:51.396Z,4.23
2023-04-08T15:00:18.836Z,4.63
2023-04-08T15:02:46.269Z,4.17
2023-04-08T15:05:13.745Z,4.57
2023-04-08T15:07:43.554Z,4.17
2023-04-08T15:10:17.500Z,4.67
2023-04-08T15:12:46.907Z,4.27
2023-04-08T15:15:15.885Z,5.27
2023-04-08T15:17:43.278Z,5.80
2023-04-08T15:20:10.893Z,5.77
2023-04-08T15:22:38.295Z,6.03
2023-04-08T15:25:06.824Z,5.90
2023-04-08T15:27:37.785Z,5.40
2023-04-08T15:30:06.070Z,6.95
2023-04-08T15:32:33.574Z,5.30
2023-04-08T15:35:01.512Z,5.50
2023-04-08T15:37:29.025Z,6.67
2023-04-08T15:39:56.380Z,5.90
2023-04-08T15:42:23.759Z,5.67
2023-04-08T15:44:53.462Z,5.57
2023-04-08T15:47:20.998Z,4.93
2023-04-08T15:49:48.924Z,5.37
2023-04-08T15:52:16.870Z,6.13
2023-04-08T15:54:44.334Z,5.43
2023-04-08T15:57:12.049Z,5.07
2023-04-08T15:59:40.485Z,5.50
2023-04-08T16:02:08.524Z,6.67
2023-04-08T16:04:36.607Z,5.77
2023-04-08T16:07:04.304Z,5.07
2023-04-08T16:09:31.995Z,4.50
2023-04-08T16:12:00.321Z,5.57
2023-04-08T16:14:28.242Z,4.97
2023-04-08T16:16:55.569Z,4.93
2023-04-08T16:19:22.988Z,4.80
2023-04-08T16:21:50.510Z,4.83
2023-04-08T16:24:20.826Z,4.87
2023-04-08T16:26:50.792Z,4.33
2023-04-08T16:29:18.665Z,5.13
2023-04-08T16:31:46.207Z,5.17
2023-04-08T16:34:13.638Z,5.10
2023-04-08T16:36:41.045Z,4.53
2023-04-08T16:39:08.531Z,5.23
2023-04-08T16:41:36.715Z,4.63
2023-04-08T16:44:04.086Z,4.73
2023-04-08T16:46:31.420Z,5.47
2023-04-08T16:48:58.791Z,4.57
2023-04-08T16:51:26.851Z,4.13
2023-04-08T16:53:57.085Z,4.67
2023-04-08T16:56:28.384Z,4.10
2023-04-08T16:58:56.196Z,4.43
2023-04-08T17:01:24.102Z,4.97
2023-04-08T17:03:53.336Z,3.60
2023-04-08T17:06:24.134Z,4.37
2023-04-08T17:08:52.192Z,3.97
2023-04-08T17:11:21.945Z,4.70
2023-04-08T17:13:49.602Z,4.00
2023-04-08T17:16:18.322Z,4.87
2023-04-08T17:18:53.389Z,3.80
2023-04-08T17:21:22.942Z,4.70
2023-04-08T17:24:01.828Z,4.73
2023-04-08T17:26:29.176Z,3.87
2023-04-08T17:28:57.865Z,4.43
2023-04-08T17:31:25.273Z,4.83
2023-04-08T17:33:52.665Z,4.30
2023-04-08T17:36:20.809Z,4.30
2023-04-08T17:38:49.678Z,4.20
2023-04-08T17:41:29.839Z,4.33
2023-04-08T17:44:06.420Z,3.70
2023-04-08T17:46:51.889Z,4.37
2023-04-08T17:49:19.912Z,4.33
2023-04-08T17:51:47.357Z,4.00
2023-04-08T17:54:14.945Z,4.13
2023-04-08T17:56:44.658Z,4.20
2023-04-08T17:59:13.039Z,4.30
2023-04-08T18:01:40.713Z,8.43
2023-04-08T18:04:08.699Z,4.60
2023-04-08T18:06:36.294Z,4.70
2023-04-08T18:09:04.309Z,4.30
2023-04-08T18:11:32.034Z,5.33
2023-04-08T18:13:59.595Z,4.87
2023-04-08T18:16:26.978Z,5.70
2023-04-08T18:18:54.474Z,5.40
2023-04-08T18:21:22.315Z,4.70
2023-04-08T18:23:50.429Z,5.00
2023-04-08T18:26:18.153Z,5.13
2023-04-08T18:28:46.169Z,5.17
2023-04-08T18:31:13.751Z,4.37
2023-04-08T18:33:41.439Z,5.10
2023-04-08T18:36:09.525Z,5.07
2023-04-08T18:38:38.296Z,4.40
2023-04-08T18:41:05.851Z,4.50
2023-04-08T18:43:34.336Z,4.63
2023-04-08T18:46:02.033Z,4.27
2023-04-08T18:48:29.658Z,4.60
2023-04-08T18:50:57.708Z,4.67
2023-04-08T18:53:25.175Z,4.40
2023-04-08T18:55:56.544Z,4.27
2023-04-08T18:58:36.455Z,3.73
2023-04-08T19:04:31.150Z,4.23
2023-04-08T19:07:03.285Z,4.30
2023-04-08T19:09:45.869Z,4.63
2023-04-08T19:12:13.612Z,4.87
2023-04-08T19:14:42.088Z,4.13
2023-04-08T19:17:09.984Z,4.17
2023-04-08T19:19:37.484Z,4.30
2023-04-08T19:22:07.579Z,3.73
2023-04-08T19:24:35.097Z,4.50
2023-04-08T19:27:02.810Z,4.50
2023-04-08T19:29:32.498Z,4.87
2023-04-08T19:32:02.153Z,4.57
2023-04-08T19:34:30.132Z,3.93
2023-04-08T19:36:57.624Z,4.03
2023-04-08T19:39:26.710Z,4.63
2023-04-08T19:41:55.693Z,3.50
2023-04-08T19:44:23.055Z,4.20
2023-04-08T19:46:50.607Z,4.10
2023-04-08T19:49:19.817Z,4.37
2023-04-08T19:51:47.218Z,4.10
2023-04-08T19:54:14.698Z,4.20
2023-04-08T19:56:42.414Z,4.50
2023-04-08T19:59:10.862Z,3.80
2023-04-08T20:01:39.900Z,4.67
2023-04-08T20:04:07.608Z,4.40
2023-04-08T20:06:35.382Z,4.57
2023-04-08T20:09:05.756Z,4.53
2023-04-08T20:11:33.792Z,4.17
2023-04-08T20:14:01.708Z,4.90
2023-04-08T20:16:29.114Z,4.50
2023-04-08T20:18:56.572Z,3.90
2023-04-08T20:21:23.946Z,4.73
2023-04-08T20:23:54.269Z,5.13
2023-04-08T20:26:21.661Z,4.73
2023-04-08T20:28:49.656Z,4.37
2023-04-08T20:31:17.230Z,4.57
2023-04-08T20:33:45.500Z,4.80
2023-04-08T20:36:13.856Z,4.87
2023-04-08T20:38:42.515Z,4.47
2023-04-08T20:41:10.221Z,4.60
2023-04-08T20:43:39.353Z,5.27
2023-04-08T20:46:06.785Z,4.57
2023-04-08T20:48:34.499Z,4.60
2023-04-08T20:51:01.926Z,4.43
2023-04-08T20:53:29.715Z,5.20
2023-04-08T20:55:57.116Z,5.20
2023-04-08T20:58:27.707Z,4.97
2023-04-08T21:00:55.125Z,5.17
2023-04-08T21:03:22.687Z,4.67
2023-04-08T21:05:50.716Z,5.30
2023-04-08T21:08:18.170Z,5.17
2023-04-08T21:10:45.718Z,5.27
2023-04-08T21:13:13.185Z,5.10
2023-04-08T21:15:40.646Z,6.10
2023-04-08T21:18:11.070Z,5.23
2023-04-08T21:20:41.102Z,5.90
2023-04-08T21:23:08.612Z,5.57
2023-04-08T21:25:36.140Z,5.13
2023-04-08T21:28:03.542Z,4.87
2023-04-08T21:30:31.133Z,5.43
2023-04-08T21:32:58.611Z,4.73
2023-04-08T21:35:26.198Z,4.60
2023-04-08T21:37:53.661Z,5.03
2023-04-08T21:40:20.987Z,5.60
2023-04-08T21:42:48.344Z,4.87
2023-04-08T21:45:17.007Z,5.90
2023-04-08T21:47:44.533Z,5.43
2023-04-08T21:50:11.939Z,5.57
2023-04-08T21:52:40.968Z,5.67
2023-04-08T21:55:09.834Z,5.50
2023-04-08T21:57:37.833Z,5.00
2023-04-08T22:00:12.990Z,5.37
2023-04-08T22:02:43.958Z,5.47
2023-04-08T22:05:12.006Z,5.60
2023-04-08T22:07:39.554Z,5.53
2023-04-08T22:10:07.390Z,4.53
2023-04-08T22:12:34.853Z,5.43
2023-04-08T22:15:02.333Z,4.83
2023-04-08T22:17:29.712Z,4.83
2023-04-08T22:19:57.141Z,5.13
2023-04-08T22:22:24.586Z,5.27
2023-04-08T22:24:52.610Z,5.57
2023-04-08T22:27:20.143Z,5.30
2023-04-08T22:29:47.651Z,5.70
2023-04-08T22:32:14.981Z,6.10
2023-04-08T22:34:42.418Z,5.83
2023-04-08T22:37:09.788Z,6.23
2023-04-08T22:39:37.275Z,5.30
2023-04-08T22:42:04.702Z,5.70
2023-04-08T22:44:32.130Z,5.80
2023-04-08T22:46:59.494Z,5.73
2023-04-08T22:49:27.438Z,5.80
2023-04-08T22:51:54.712Z,6.23
2023-04-08T22:54:22.582Z,6.20
2023-04-08T22:56:49.958Z,5.23
2023-04-08T22:59:17.412Z,6.47
2023-04-08T23:01:45.193Z,5.37
2023-04-08T23:04:13.577Z,5.13
2023-04-08T23:06:41.009Z,5.57
2023-04-08T23:09:08.434Z,6.97
2023-04-08T23:11:36.000Z,6.60
2023-04-08T23:14:03.622Z,5.40
2023-04-08T23:16:31.583Z,6.50
2023-04-08T23:18:58.964Z,5.30
2023-04-08T23:21:27.041Z,5.47
2023-04-08T23:23:54.440Z,5.57
2023-04-08T23:26:21.724Z,6.77
2023-04-08T23:28:49.266Z,5.77
2023-04-08T23:31:16.928Z,7.47
2023-04-08T23:33:44.420Z,6.17
2023-04-08T23:36:12.785Z,6.53
2023-04-08T23:38:40.708Z,6.83
2023-04-08T23:41:08.479Z,6.87
2023-04-08T23:43:36.634Z,5.83
2023-04-08T23:46:03.990Z,6.53
2023-04-08T23:48:31.445Z,6.90
2023-04-08T23:50:58.889Z,6.20
2023-04-08T23:53:26.351Z,6.90
2023-04-08T23:55:53.721Z,6.37
2023-04-08T23:58:21.188Z,6.00
